Time;durP1;ratioP1;P1;durP2;ratioP2;P2;SDS_P1;SDS_P2;PMS_P1;PMS_P2;Temp;Humidity;BMP_temperature;BMP_pressure;BME280_temperature;BME280_humidity;BME280_pressure;Samples;Min_cycle;Max_cycle;Signal;HPM_P1;HPM_P2
2023/03/15 00:00:28;;;;;;;3.00;2.12;;;1.00;99.90;;;;;;489546;243;27921;-75
2023/03/15 00:02:30;;;;;;;2.20;1.85;;;1.00;99.90;;;;;;489579;243;27508;-75
2023/03/15 00:04:33;;;;;;;2.70;1.90;;;1.00;99.90;;;;;;489545;243;27371;-74
2023/03/15 00:06:35;;;;;;;5.97;2.10;;;1.00;99.90;;;;;;489513;243;27851;-75
2023/03/15 00:08:36;;;;;;;3.53;2.15;;;0.90;99.90;;;;;;489568;243;27931;-76
2023/03/15 00:10:37;;;;;;;2.10;1.80;;;0.90;99.90;;;;;;489495;243;27367;-75
2023/03/15 00:12:38;;;;;;;3.60;2.40;;;0.90;99.90;;;;;;489560;243;27405;-75
2023/03/15 00:14:40;;;;;;;3.22;2.47;;;0.90;99.90;;;;;;489551;243;27421;-75
2023/03/15 00:16:41;;;;;;;5.90;2.70;;;0.90;99.90;;;;;;489581;243;27446;-74
2023/03/15 00:18:42;;;;;;;4.30;2.30;;;0.90;99.90;;;;;;489520;243;27401;-75
2023/03/15 00:20:43;;;;;;;2.97;2.15;;;0.90;99.90;;;;;;489538;243;27479;-75
2023/03/15 00:22:45;;;;;;;3.15;2.45;;;0.90;99.90;;;;;;489315;243;27625;-75
2023/03/15 00:24:46;;;;;;;4.10;2.50;;;0.90;99.90;;;;;;489493;243;27530;-74
2023/03/15 00:26:47;;;;;;;3.70;1.90;;;0.80;99.90;;;;;;489462;243;27434;-74
2023/03/15 00:28:48;;;;;;;5.00;2.25;;;0.80;99.90;;;;;;489501;243;27419;-74
2023/03/15 00:30:50;;;;;;;3.25;2.22;;;0.80;99.90;;;;;;489487;243;27854;-76
2023/03/15 00:32:52;;;;;;;5.75;2.40;;;0.80;99.90;;;;;;489541;243;27950;-74
2023/03/15 00:34:53;;;;;;;4.18;2.50;;;0.80;99.90;;;;;;489341;243;28062;-74
2023/03/15 00:36:53;;;;;;;2.37;2.17;;;0.80;99.90;;;;;;489527;243;27862;-76
2023/03/15 00:38:55;;;;;;;5.65;3.42;;;0.80;99.90;;;;;;489561;243;27399;-74
2023/03/15 00:40:56;;;;;;;8.35;2.85;;;0.70;99.90;;;;;;489586;243;27365;-75
2023/03/15 00:42:57;;;;;;;3.30;2.20;;;0.70;99.90;;;;;;489571;243;27431;-76
2023/03/15 00:44:58;;;;;;;5.90;2.80;;;0.70;99.90;;;;;;489523;243;27502;-76
2023/03/15 00:47:00;;;;;;;6.65;2.80;;;0.70;99.90;;;;;;489590;243;27377;-74
2023/03/15 00:49:01;;;;;;;8.13;2.53;;;0.70;99.90;;;;;;489586;243;27511;-75
2023/03/15 00:51:02;;;;;;;4.22;3.15;;;0.70;99.90;;;;;;489572;243;27383;-76
2023/03/15 00:53:03;;;;;;;2.47;2.28;;;0.60;99.90;;;;;;489568;243;27408;-75
2023/03/15 00:55:05;;;;;;;5.25;3.05;;;0.60;99.90;;;;;;489552;243;27466;-75
2023/03/15 00:57:06;;;;;;;3.50;3.15;;;0.60;99.90;;;;;;489584;243;27491;-74
2023/03/15 00:59:07;;;;;;;5.43;4.00;;;0.60;99.90;;;;;;489574;243;27887;-74
2023/03/15 01:01:08;;;;;;;4.93;3.53;;;0.50;99.90;;;;;;489605;243;28021;-75
2023/03/15 01:03:10;;;;;;;5.93;3.20;;;0.50;99.90;;;;;;489566;243;27974;-75
2023/03/15 01:05:11;;;;;;;5.87;3.47;;;0.50;99.90;;;;;;489577;243;27951;-74
2023/03/15 01:07:12;;;;;;;8.10;4.28;;;0.50;99.90;;;;;;489565;243;27403;-75
2023/03/15 01:09:13;;;;;;;4.30;3.75;;;0.50;99.90;;;;;;489547;243;27403;-75
2023/03/15 01:11:15;;;;;;;5.43;3.50;;;0.50;99.90;;;;;;489536;243;27377;-74
2023/03/15 01:13:16;;;;;;;6.03;3.35;;;0.50;99.90;;;;;;489510;243;27486;-74
2023/03/15 01:15:17;;;;;;;5.32;3.22;;;0.50;99.90;;;;;;489502;243;27388;-74
2023/03/15 01:17:18;;;;;;;10.32;4.32;;;0.40;99.90;;;;;;489556;243;27507;-75
2023/03/15 01:19:20;;;;;;;6.05;4.87;;;0.40;99.90;;;;;;489573;243;27442;-75
2023/03/15 01:21:21;;;;;;;5.12;3.60;;;0.40;99.90;;;;;;489578;243;27369;-75
2023/03/15 01:23:22;;;;;;;5.65;4.50;;;0.40;99.90;;;;;;489565;243;27494;-74
2023/03/15 01:25:23;;;;;;;7.95;5.35;;;0.40;99.90;;;;;;489539;243;27515;-76
2023/03/15 01:27:25;;;;;;;5.30;3.85;;;0.40;99.90;;;;;;489569;243;27848;-75
2023/03/15 01:29:26;;;;;;;7.15;4.03;;;0.40;99.90;;;;;;489597;243;27975;-75
2023/03/15 01:31:27;;;;;;;11.65;4.50;;;0.30;99.90;;;;;;489563;243;27857;-75
2023/03/15 01:33:28;;;;;;;11.65;4.90;;;0.30;99.90;;;;;;489591;243;27403;-75
2023/03/15 01:35:30;;;;;;;5.80;4.40;;;0.30;99.90;;;;;;489541;243;27506;-74
2023/03/15 01:37:33;;;;;;;4.93;3.90;;;0.30;99.90;;;;;;489621;243;27427;-74
2023/03/15 01:39:32;;;;;;;6.12;4.57;;;0.20;99.90;;;;;;489435;243;27485;-74
2023/03/15 01:41:33;;;;;;;7.28;4.78;;;0.20;99.90;;;;;;489589;243;27364;-75
2023/03/15 01:43:35;;;;;;;7.32;4.53;;;0.20;99.90;;;;;;489583;243;27499;-75
2023/03/15 01:45:36;;;;;;;4.82;4.40;;;0.20;99.90;;;;;;489581;243;27415;-74
2023/03/15 01:47:37;;;;;;;5.45;4.22;;;0.20;99.90;;;;;;489616;243;27389;-75
2023/03/15 01:49:38;;;;;;;4.55;4.07;;;0.20;99.90;;;;;;489595;243;27448;-75
2023/03/15 01:51:40;;;;;;;12.18;5.55;;;0.20;99.90;;;;;;489582;243;27438;-74
2023/03/15 01:53:41;;;;;;;10.35;5.47;;;0.20;99.90;;;;;;489555;243;27894;-74
2023/03/15 01:55:42;;;;;;;7.82;5.12;;;0.20;99.90;;;;;;489581;243;28055;-74
2023/03/15 01:57:43;;;;;;;6.20;5.57;;;0.20;99.90;;;;;;489586;243;27938;-75
2023/03/15 01:59:45;;;;;;;6.93;5.40;;;0.20;99.90;;;;;;489571;243;27396;-74
2023/03/15 02:01:46;;;;;;;6.05;4.80;;;0.10;99.90;;;;;;489580;243;27376;-74
2023/03/15 02:03:47;;;;;;;10.68;5.65;;;0.10;99.90;;;;;;489499;243;27420;-75
2023/03/15 02:05:48;;;;;;;9.40;5.57;;;0.10;99.90;;;;;;489596;243;27466;-74
2023/03/15 02:07:53;;;;;;;8.80;5.65;;;0.10;99.90;;;;;;489525;243;27375;-75
2023/03/15 02:09:51;;;;;;;10.25;5.87;;;0.10;99.90;;;;;;489220;243;27408;-74
2023/03/15 02:11:52;;;;;;;10.65;6.85;;;0.10;99.90;;;;;;489526;243;27371;-74
2023/03/15 02:13:53;;;;;;;13.00;6.68;;;0.20;99.90;;;;;;489532;243;27415;-75
2023/03/15 02:15:55;;;;;;;10.18;6.20;;;0.20;99.90;;;;;;489535;243;27959;-74
2023/03/15 02:17:56;;;;;;;8.63;5.97;;;0.10;99.90;;;;;;489542;243;28006;-75
2023/03/15 02:19:57;;;;;;;11.57;6.60;;;0.10;99.90;;;;;;489554;243;28008;-75
2023/03/15 02:21:58;;;;;;;10.90;6.15;;;0.10;99.90;;;;;;489573;243;27408;-74
2023/03/15 02:24:00;;;;;;;9.15;5.95;;;0.10;99.90;;;;;;489551;243;27490;-74
2023/03/15 02:26:01;;;;;;;11.30;6.75;;;0.10;99.90;;;;;;489560;243;27482;-74
2023/03/15 02:28:02;;;;;;;11.82;6.22;;;0.10;99.90;;;;;;489565;243;27459;-74
2023/03/15 02:30:03;;;;;;;13.20;6.47;;;0.00;99.90;;;;;;489573;243;27419;-75
2023/03/15 02:32:05;;;;;;;16.15;7.60;;;0.00;99.90;;;;;;489559;243;27384;-75
2023/03/15 02:34:06;;;;;;;9.18;5.18;;;0.00;99.90;;;;;;489563;243;27510;-74
2023/03/15 02:36:07;;;;;;;8.43;6.28;;;0.10;99.90;;;;;;489585;243;27472;-74
2023/03/15 02:38:08;;;;;;;9.90;6.22;;;0.10;99.90;;;;;;489541;243;27891;-74
2023/03/15 02:40:10;;;;;;;9.10;6.00;;;0.00;99.90;;;;;;489545;243;27938;-73
2023/03/15 02:42:11;;;;;;;11.12;6.68;;;0.10;99.90;;;;;;489520;243;27937;-76
2023/03/15 02:44:12;;;;;;;10.85;6.65;;;0.10;99.90;;;;;;489531;243;29000;-75
2023/03/15 02:46:13;;;;;;;7.25;5.45;;;0.10;99.90;;;;;;489559;243;27413;-74
2023/03/15 02:48:15;;;;;;;10.82;7.07;;;0.00;99.90;;;;;;489582;243;27381;-75
2023/03/15 02:50:16;;;;;;;10.73;5.80;;;0.00;99.90;;;;;;489570;243;27517;-74
2023/03/15 02:52:17;;;;;;;14.65;7.45;;;0.00;99.90;;;;;;489585;243;27408;-74
2023/03/15 02:54:18;;;;;;;13.23;6.62;;;0.00;99.90;;;;;;489547;243;27431;-75
2023/03/15 02:56:20;;;;;;;8.25;6.65;;;0.00;99.90;;;;;;489566;243;27843;-74
2023/03/15 02:58:21;;;;;;;12.37;6.90;;;0.00;99.90;;;;;;489565;243;27475;-75
2023/03/15 03:00:22;;;;;;;14.25;6.12;;;0.00;99.90;;;;;;489589;243;27924;-75
2023/03/15 03:02:23;;;;;;;13.20;6.37;;;0.00;99.90;;;;;;489600;243;27883;-75
2023/03/15 03:04:25;;;;;;;11.68;6.20;;;0.00;99.90;;;;;;489553;243;27989;-75
2023/03/15 03:06:26;;;;;;;10.10;6.15;;;0.00;99.90;;;;;;489604;243;27404;-75
2023/03/15 03:08:27;;;;;;;10.32;5.90;;;-0.10;99.90;;;;;;489511;243;27447;-76
2023/03/15 03:10:28;;;;;;;13.18;6.97;;;-0.10;99.90;;;;;;489551;243;27412;-74
2023/03/15 03:12:30;;;;;;;14.52;6.85;;;0.00;99.90;;;;;;489551;243;27457;-75
2023/03/15 03:14:31;;;;;;;10.10;6.87;;;0.00;99.90;;;;;;489645;243;27393;-74
2023/03/15 03:16:32;;;;;;;15.77;7.53;;;-0.10;99.90;;;;;;489947;243;27384;-74
2023/03/15 03:18:37;;;;;;;13.32;6.62;;;-0.10;99.90;;;;;;489851;243;27380;-75
2023/03/15 03:20:38;;;;;;;14.60;6.62;;;-0.10;99.90;;;;;;489924;243;27518;-73
2023/03/15 03:22:40;;;;;;;11.65;6.45;;;-0.10;99.90;;;;;;489829;242;27362;-74
2023/03/15 03:24:44;;;;;;;19.98;8.38;;;-0.10;99.90;;;;;;489818;243;27419;-74
2023/03/15 03:26:44;;;;;;;11.95;7.57;;;-0.10;99.90;;;;;;489332;243;27361;-75
2023/03/15 03:28:44;;;;;;;14.43;8.00;;;-0.20;99.90;;;;;;489394;243;27381;-74
2023/03/15 03:30:45;;;;;;;18.92;7.68;;;-0.20;99.90;;;;;;489669;243;27983;-74
2023/03/15 03:32:46;;;;;;;16.80;8.50;;;-0.10;99.90;;;;;;489659;243;28987;-75
2023/03/15 03:34:47;;;;;;;17.35;8.95;;;-0.10;99.90;;;;;;489549;243;27407;-75
2023/03/15 03:36:50;;;;;;;16.58;7.55;;;-0.10;99.90;;;;;;489567;243;27483;-74
2023/03/15 03:38:52;;;;;;;15.07;8.85;;;-0.20;99.90;;;;;;489599;243;27460;-74
2023/03/15 03:40:53;;;;;;;14.05;7.53;;;-0.10;99.90;;;;;;489413;243;27890;-74
2023/03/15 03:42:54;;;;;;;10.68;7.35;;;-0.10;99.90;;;;;;489526;243;27831;-75
2023/03/15 03:44:55;;;;;;;14.10;7.68;;;-0.10;99.90;;;;;;489537;243;27491;-74
2023/03/15 03:46:57;;;;;;;12.98;7.45;;;-0.10;99.90;;;;;;489567;243;27521;-75
2023/03/15 03:48:58;;;;;;;12.25;7.10;;;-0.10;99.90;;;;;;489546;243;27375;-74
2023/03/15 03:50:59;;;;;;;10.98;7.30;;;0.00;99.90;;;;;;489576;243;27415;-74
2023/03/15 03:53:00;;;;;;;15.15;7.55;;;0.00;99.90;;;;;;489549;243;27373;-75
2023/03/15 03:55:02;;;;;;;13.13;7.68;;;0.10;99.90;;;;;;489509;243;27415;-75
2023/03/15 03:57:03;;;;;;;15.85;8.07;;;0.10;99.90;;;;;;489533;243;27429;-75
2023/03/15 03:59:04;;;;;;;20.33;8.20;;;0.10;99.90;;;;;;489547;243;27848;-75
2023/03/15 04:01:05;;;;;;;13.00;7.60;;;0.20;99.90;;;;;;489536;243;27895;-74
2023/03/15 04:03:07;;;;;;;16.58;7.90;;;0.20;99.90;;;;;;489515;243;27434;-75
2023/03/15 04:05:08;;;;;;;14.27;8.00;;;0.30;99.90;;;;;;489548;243;27435;-75
2023/03/15 04:07:09;;;;;;;15.75;8.73;;;0.30;99.90;;;;;;489560;243;27443;-75
2023/03/15 04:09:11;;;;;;;16.45;8.85;;;0.30;99.90;;;;;;489561;243;27375;-74
2023/03/15 04:11:16;;;;;;;12.50;7.62;;;0.30;99.90;;;;;;489370;243;27448;-75
2023/03/15 04:13:13;;;;;;;15.73;8.85;;;0.20;99.90;;;;;;489101;243;27395;-76
2023/03/15 04:15:14;;;;;;;15.40;8.13;;;0.30;99.90;;;;;;489550;243;27411;-75
2023/03/15 04:17:16;;;;;;;20.23;8.07;;;0.30;99.90;;;;;;489543;243;27952;-75
2023/03/15 04:19:17;;;;;;;15.18;8.25;;;0.30;99.90;;;;;;489556;243;27916;-75
2023/03/15 04:21:21;;;;;;;15.70;9.35;;;0.30;99.90;;;;;;489568;243;27411;-75
2023/03/15 04:23:19;;;;;;;17.87;9.65;;;0.30;99.90;;;;;;489113;243;27407;-74
2023/03/15 04:25:21;;;;;;;16.75;8.75;;;0.30;99.90;;;;;;489507;243;27490;-75
2023/03/15 04:27:22;;;;;;;15.93;8.73;;;0.30;99.90;;;;;;489558;243;27447;-74
2023/03/15 04:29:23;;;;;;;18.02;9.35;;;0.30;99.90;;;;;;489565;243;27515;-75
2023/03/15 04:31:28;;;;;;;20.27;9.10;;;0.20;99.90;;;;;;489547;243;27896;-74
2023/03/15 04:33:26;;;;;;;20.30;8.02;;;0.20;99.90;;;;;;489172;243;27918;-75
2023/03/15 04:35:27;;;;;;;19.90;8.82;;;0.20;99.90;;;;;;489511;243;27911;-74
2023/03/15 04:37:28;;;;;;;13.40;7.90;;;0.30;99.90;;;;;;489565;243;27480;-76
2023/03/15 04:39:29;;;;;;;14.77;7.47;;;0.30;99.90;;;;;;489579;243;27420;-75
2023/03/15 04:41:31;;;;;;;17.00;8.93;;;0.40;99.90;;;;;;489548;243;27496;-75
2023/03/15 04:43:32;;;;;;;16.17;8.70;;;0.40;99.90;;;;;;489556;243;27380;-76
2023/03/15 04:45:33;;;;;;;13.20;7.82;;;0.40;99.90;;;;;;489515;243;27514;-76
2023/03/15 04:47:34;;;;;;;17.25;8.55;;;0.40;99.90;;;;;;489567;243;27424;-75
2023/03/15 04:49:36;;;;;;;19.90;8.93;;;0.40;99.90;;;;;;489565;243;27458;-74
2023/03/15 04:51:37;;;;;;;14.93;7.57;;;0.40;99.90;;;;;;489561;243;27911;-75
2023/03/15 04:53:38;;;;;;;15.02;8.32;;;0.40;99.90;;;;;;489547;243;27839;-75
2023/03/15 04:55:39;;;;;;;16.83;8.60;;;0.40;99.90;;;;;;489550;243;27439;-75
2023/03/15 04:57:41;;;;;;;15.40;7.97;;;0.40;99.90;;;;;;489582;243;27383;-74
2023/03/15 04:59:42;;;;;;;20.52;8.40;;;0.40;99.90;;;;;;489583;243;27446;-74
2023/03/15 05:01:43;;;;;;;17.15;8.30;;;0.40;99.90;;;;;;489565;243;27515;-75
2023/03/15 05:03:44;;;;;;;16.70;8.60;;;0.40;99.90;;;;;;489557;243;27383;-76
2023/03/15 05:05:46;;;;;;;18.05;9.13;;;0.40;99.90;;;;;;489587;243;27505;-75
2023/03/15 05:07:47;;;;;;;18.27;9.52;;;0.40;99.90;;;;;;489597;243;27420;-76
2023/03/15 05:09:48;;;;;;;13.50;8.80;;;0.40;99.90;;;;;;489582;243;27455;-75
2023/03/15 05:11:49;;;;;;;25.33;9.93;;;0.40;99.90;;;;;;489583;243;27916;-76
2023/03/15 05:13:51;;;;;;;24.17;9.68;;;0.40;99.90;;;;;;489577;243;28696;-76
2023/03/15 05:15:52;;;;;;;13.70;9.35;;;0.40;99.90;;;;;;489602;243;27483;-76
2023/03/15 05:17:54;;;;;;;17.20;9.10;;;0.30;99.90;;;;;;489540;243;27412;-75
2023/03/15 05:19:54;;;;;;;16.27;9.82;;;0.40;99.90;;;;;;489508;243;27372;-75
2023/03/15 05:21:56;;;;;;;24.17;10.70;;;0.40;99.90;;;;;;489544;243;27439;-76
2023/03/15 05:23:57;;;;;;;32.70;11.38;;;0.40;99.90;;;;;;489535;243;27461;-75
2023/03/15 05:25:58;;;;;;;18.00;11.07;;;0.50;99.90;;;;;;489560;243;27508;-76
2023/03/15 05:28:03;;;;;;;15.77;10.45;;;0.40;99.90;;;;;;489587;243;27424;-74
2023/03/15 05:30:04;;;;;;;13.93;9.55;;;0.40;99.90;;;;;;489139;243;27958;-75
2023/03/15 05:32:05;;;;;;;17.40;10.45;;;0.40;99.90;;;;;;489564;243;27948;-75
2023/03/15 05:34:06;;;;;;;17.73;10.10;;;0.40;99.90;;;;;;489555;243;27407;-75
2023/03/15 05:36:07;;;;;;;17.70;10.70;;;0.40;99.90;;;;;;489580;243;27391;-76
2023/03/15 05:38:13;;;;;;;15.35;9.77;;;0.40;99.90;;;;;;489543;243;27491;-76
2023/03/15 05:40:10;;;;;;;21.52;10.45;;;0.30;99.90;;;;;;489248;243;27412;-76
2023/03/15 05:42:12;;;;;;;18.27;10.48;;;0.30;99.90;;;;;;489587;243;27385;-75
2023/03/15 05:44:12;;;;;;;21.87;10.48;;;0.30;99.90;;;;;;489545;243;27536;-76
2023/03/15 05:46:14;;;;;;;14.65;9.30;;;0.30;99.90;;;;;;489588;243;28608;-75
2023/03/15 05:48:15;;;;;;;38.17;10.80;;;0.40;99.90;;;;;;489560;243;27866;-73
2023/03/15 05:50:16;;;;;;;17.60;9.50;;;0.30;99.90;;;;;;489558;243;27519;-75
2023/03/15 05:52:17;;;;;;;16.42;9.85;;;0.30;99.90;;;;;;489593;243;27468;-75
2023/03/15 05:54:19;;;;;;;12.52;7.90;;;0.30;99.90;;;;;;482093;235;27543;-75
2023/03/15 05:56:20;;;;;;;15.20;8.82;;;0.30;99.90;;;;;;477569;247;27519;-76
2023/03/15 05:58:21;;;;;;;12.48;9.55;;;0.30;99.90;;;;;;477562;249;27405;-76
2023/03/15 06:00:22;;;;;;;12.48;8.20;;;0.40;99.90;;;;;;477559;247;27612;-75
2023/03/15 06:02:24;;;;;;;14.80;8.63;;;0.40;99.90;;;;;;477560;248;27397;-76
2023/03/15 06:04:25;;;;;;;18.48;8.65;;;0.40;99.90;;;;;;477554;247;27935;-75
2023/03/15 06:06:26;;;;;;;12.82;7.90;;;0.50;99.90;;;;;;477593;247;27915;-74
2023/03/15 06:08:28;;;;;;;17.05;8.68;;;0.50;99.90;;;;;;477563;248;27975;-74
2023/03/15 06:10:29;;;;;;;17.52;8.40;;;0.60;99.90;;;;;;477569;247;27506;-75
2023/03/15 06:12:30;;;;;;;15.02;7.87;;;0.50;99.90;;;;;;477549;247;27404;-76
2023/03/15 06:14:31;;;;;;;17.60;7.90;;;0.50;99.90;;;;;;477462;239;27561;-76
2023/03/15 06:16:34;;;;;;;10.43;7.55;;;0.50;99.90;;;;;;476000;250;27600;-75
2023/03/15 06:18:35;;;;;;;15.85;6.45;;;0.60;99.90;;;;;;475997;250;27569;-75
2023/03/15 06:20:37;;;;;;;9.90;6.82;;;0.60;99.90;;;;;;476010;250;27547;-74
2023/03/15 06:22:38;;;;;;;14.00;8.45;;;0.60;99.90;;;;;;475972;250;28089;-75
2023/03/15 06:24:39;;;;;;;12.32;7.43;;;0.60;99.90;;;;;;475988;250;28029;-76
2023/03/15 06:26:40;;;;;;;11.90;6.65;;;0.60;99.90;;;;;;475971;250;27960;-75
2023/03/15 06:28:42;;;;;;;16.45;7.72;;;0.70;99.90;;;;;;475969;250;27552;-75
2023/03/15 06:30:43;;;;;;;9.90;7.32;;;0.70;99.90;;;;;;475995;250;27562;-76
2023/03/15 06:32:44;;;;;;;10.50;6.93;;;0.80;99.90;;;;;;476044;250;27520;-76
2023/03/15 06:34:45;;;;;;;9.15;6.22;;;0.90;99.90;;;;;;475971;250;27581;-75
2023/03/15 06:36:48;;;;;;;12.15;7.53;;;0.90;99.90;;;;;;475953;250;27608;-76
2023/03/15 06:38:48;;;;;;;10.88;7.07;;;0.90;99.90;;;;;;475847;250;27567;-75
2023/03/15 06:40:49;;;;;;;12.18;7.12;;;1.00;99.90;;;;;;475968;250;27671;-76
2023/03/15 06:42:50;;;;;;;22.70;10.50;;;1.10;99.90;;;;;;475984;250;27978;-76
2023/03/15 06:44:52;;;;;;;13.60;8.35;;;1.10;99.90;;;;;;475927;249;28119;-76
2023/03/15 06:46:53;;;;;;;12.90;8.25;;;1.10;99.90;;;;;;475941;250;28008;-75
2023/03/15 06:48:54;;;;;;;10.45;6.87;;;1.20;99.90;;;;;;475923;250;27547;-75
2023/03/15 06:50:55;;;;;;;11.48;7.80;;;1.20;99.90;;;;;;475981;249;27576;-75
2023/03/15 06:52:58;;;;;;;13.00;7.80;;;1.30;99.90;;;;;;475964;250;27520;-76
2023/03/15 06:54:58;;;;;;;10.02;7.45;;;1.30;99.90;;;;;;475826;250;27637;-75
2023/03/15 06:56:59;;;;;;;18.50;7.82;;;1.30;99.90;;;;;;475964;250;27620;-76
2023/03/15 06:59:00;;;;;;;16.15;8.50;;;1.20;99.90;;;;;;475962;250;27655;-76
2023/03/15 07:01:02;;;;;;;13.45;8.45;;;1.20;99.90;;;;;;475969;249;27586;-76
2023/03/15 07:03:03;;;;;;;18.30;7.82;;;1.20;99.90;;;;;;475982;250;28068;-75
2023/03/15 07:05:04;;;;;;;15.23;7.47;;;1.30;99.90;;;;;;475921;246;28022;-75
2023/03/15 07:07:06;;;;;;;14.52;8.98;;;1.30;99.90;;;;;;475939;250;28002;-77
2023/03/15 07:09:07;;;;;;;16.85;8.38;;;1.30;99.90;;;;;;475901;250;27543;-76
2023/03/15 07:11:08;;;;;;;12.40;8.25;;;1.30;99.90;;;;;;475953;250;27543;-76
2023/03/15 07:13:09;;;;;;;16.65;8.95;;;1.20;99.90;;;;;;475946;250;27584;-76
2023/03/15 07:15:11;;;;;;;13.45;8.10;;;1.20;99.90;;;;;;475918;250;27552;-76
2023/03/15 07:17:12;;;;;;;14.80;9.25;;;1.30;99.90;;;;;;475958;249;27539;-77
2023/03/15 07:19:13;;;;;;;12.95;8.43;;;1.30;99.90;;;;;;475938;250;27573;-76
2023/03/15 07:21:16;;;;;;;14.87;8.90;;;1.40;99.90;;;;;;475962;250;27571;-75
2023/03/15 07:23:17;;;;;;;20.40;10.40;;;1.50;99.90;;;;;;475965;250;27631;-75
2023/03/15 07:25:22;;;;;;;19.48;11.12;;;1.40;99.90;;;;;;475968;250;28028;-76
2023/03/15 07:27:20;;;;;;;18.08;10.20;;;1.50;99.90;;;;;;475682;250;28093;-76
2023/03/15 07:29:22;;;;;;;17.25;10.75;;;1.70;99.90;;;;;;475969;249;28037;-76
2023/03/15 07:31:22;;;;;;;19.25;9.95;;;1.80;99.90;;;;;;475904;250;27564;-77
2023/03/15 07:33:24;;;;;;;19.23;10.73;;;1.90;99.90;;;;;;475981;250;27527;-76
2023/03/15 07:35:25;;;;;;;12.77;9.80;;;2.00;99.90;;;;;;475955;250;27548;-76
2023/03/15 07:37:26;;;;;;;16.80;9.90;;;1.90;99.90;;;;;;475961;250;27516;-75
2023/03/15 07:39:31;;;;;;;14.27;10.38;;;1.90;99.90;;;;;;475944;250;27557;-75
2023/03/15 07:41:29;;;;;;;14.30;10.18;;;1.70;99.90;;;;;;475641;250;27575;-77
2023/03/15 07:43:30;;;;;;;14.52;10.10;;;1.70;99.90;;;;;;475962;250;28056;-76
2023/03/15 07:45:32;;;;;;;17.10;10.52;;;1.70;99.90;;;;;;475951;250;28039;-76
2023/03/15 07:47:32;;;;;;;19.30;10.50;;;1.70;99.90;;;;;;475741;250;27521;-77
2023/03/15 07:49:34;;;;;;;12.95;9.02;;;1.70;99.90;;;;;;475923;250;27656;-75
2023/03/15 07:51:35;;;;;;;16.42;10.18;;;1.80;99.90;;;;;;475945;250;27580;-76
2023/03/15 07:53:36;;;;;;;17.08;10.75;;;1.80;99.90;;;;;;475995;250;27533;-77
2023/03/15 07:55:37;;;;;;;18.37;11.50;;;1.70;99.90;;;;;;476147;250;27547;-76
2023/03/15 07:57:39;;;;;;;12.52;9.88;;;1.60;99.90;;;;;;476234;250;27592;-77
2023/03/15 07:59:40;;;;;;;16.10;11.18;;;1.60;99.90;;;;;;476275;250;28027;-76
2023/03/15 08:01:41;;;;;;;16.80;10.50;;;1.60;99.90;;;;;;476286;250;27612;-76
2023/03/15 08:03:42;;;;;;;19.42;11.20;;;1.70;99.90;;;;;;476250;250;27528;-75
2023/03/15 08:05:44;;;;;;;15.88;11.40;;;1.70;99.90;;;;;;476031;250;27560;-76
2023/03/15 08:07:45;;;;;;;19.40;12.75;;;1.80;99.90;;;;;;476001;250;27609;-75
2023/03/15 08:09:47;;;;;;;15.43;10.55;;;1.90;99.90;;;;;;476039;250;27516;-76
2023/03/15 08:11:49;;;;;;;22.17;11.40;;;2.10;99.90;;;;;;476000;250;27595;-76
2023/03/15 08:13:50;;;;;;;15.30;10.75;;;2.30;99.90;;;;;;475974;250;27584;-77
2023/03/15 08:15:52;;;;;;;14.68;10.40;;;2.40;99.90;;;;;;476002;250;28069;-76
2023/03/15 08:17:53;;;;;;;13.62;10.63;;;2.50;99.90;;;;;;476018;250;27505;-77
2023/03/15 08:19:54;;;;;;;13.20;9.02;;;2.50;99.90;;;;;;475965;250;27555;-78
2023/03/15 08:21:55;;;;;;;22.00;11.35;;;2.30;99.90;;;;;;475970;250;27530;-77
2023/03/15 08:23:57;;;;;;;20.08;12.50;;;2.30;99.90;;;;;;475990;250;27509;-77
2023/03/15 08:25:58;;;;;;;21.90;12.73;;;2.10;99.90;;;;;;475991;250;27556;-76
2023/03/15 08:27:59;;;;;;;13.00;9.65;;;2.00;99.90;;;;;;475975;250;27545;-77
2023/03/15 08:30:00;;;;;;;14.65;9.30;;;2.00;99.90;;;;;;475911;250;27551;-76
2023/03/15 08:32:02;;;;;;;19.50;9.80;;;2.10;99.90;;;;;;475956;250;27628;-77
2023/03/15 08:34:03;;;;;;;16.15;11.10;;;2.10;99.90;;;;;;475935;250;27952;-77
2023/03/15 08:36:04;;;;;;;18.67;10.18;;;2.20;99.90;;;;;;475937;250;29136;-76
2023/03/15 08:38:05;;;;;;;17.55;9.45;;;2.20;99.90;;;;;;475955;250;27666;-77
2023/03/15 08:40:10;;;;;;;13.98;9.80;;;2.10;99.90;;;;;;475970;250;27632;-77
2023/03/15 08:42:11;;;;;;;19.58;9.98;;;2.10;99.90;;;;;;475960;250;28142;-75
2023/03/15 08:44:12;;;;;;;16.20;9.25;;;2.10;99.90;;;;;;475982;250;28088;-76
2023/03/15 08:46:13;;;;;;;16.27;10.20;;;2.10;99.90;;;;;;476010;250;28056;-78
2023/03/15 08:48:15;;;;;;;17.65;9.15;;;2.00;99.90;;;;;;475975;250;27559;-77
2023/03/15 08:50:16;;;;;;;14.43;9.68;;;2.00;99.90;;;;;;475929;250;27523;-77
2023/03/15 08:52:17;;;;;;;15.82;9.52;;;2.00;99.90;;;;;;475959;250;27622;-77
2023/03/15 08:54:18;;;;;;;16.77;8.95;;;2.00;99.90;;;;;;475993;250;27927;-77
2023/03/15 08:56:20;;;;;;;15.48;9.73;;;2.00;99.90;;;;;;475936;250;27574;-78
2023/03/15 08:58:22;;;;;;;14.80;8.65;;;2.10;99.90;;;;;;475931;250;27628;-76
2023/03/15 09:00:23;;;;;;;12.73;9.10;;;2.20;99.90;;;;;;475915;250;28071;-77
2023/03/15 09:02:24;;;;;;;14.55;9.70;;;2.20;99.90;;;;;;475906;250;27972;-77
2023/03/15 09:04:25;;;;;;;17.83;9.35;;;2.10;99.90;;;;;;475881;250;28140;-76
2023/03/15 09:06:27;;;;;;;12.27;8.60;;;2.00;99.90;;;;;;475940;250;27665;-77
2023/03/15 09:08:28;;;;;;;14.43;9.05;;;1.90;99.90;;;;;;475957;250;27553;-76
2023/03/15 09:10:29;;;;;;;15.68;8.35;;;2.00;99.90;;;;;;475937;250;27555;-76
2023/03/15 09:12:30;;;;;;;18.30;8.65;;;2.00;99.90;;;;;;475972;250;27545;-77
2023/03/15 09:14:32;;;;;;;12.55;9.25;;;2.20;99.90;;;;;;475957;250;27563;-77
2023/03/15 09:16:33;;;;;;;11.57;7.87;;;2.40;99.90;;;;;;475927;249;27533;-77
2023/03/15 09:18:34;;;;;;;17.20;8.80;;;2.40;99.90;;;;;;475938;250;27550;-76
2023/03/15 09:20:38;;;;;;;14.60;8.00;;;2.50;99.90;;;;;;475994;250;28047;-77
2023/03/15 09:22:37;;;;;;;14.85;8.30;;;2.60;99.90;;;;;;475769;250;27548;-77
2023/03/15 09:24:38;;;;;;;11.32;7.50;;;2.60;99.90;;;;;;475964;250;27668;-76
2023/03/15 09:26:39;;;;;;;13.65;8.68;;;2.60;99.90;;;;;;475965;250;28176;-77
2023/03/15 09:28:41;;;;;;;11.77;7.70;;;2.60;99.90;;;;;;472815;250;36930;-77
2023/03/15 09:30:42;;;;;;;16.52;8.65;;;2.60;99.90;;;;;;475962;250;27566;-76
2023/03/15 09:32:44;;;;;;;11.30;7.30;;;2.70;99.90;;;;;;475970;250;27525;-77
2023/03/15 09:34:44;;;;;;;13.40;7.72;;;2.60;99.90;;;;;;475908;250;27591;-77
2023/03/15 09:36:51;;;;;;;13.00;8.15;;;2.70;99.90;;;;;;475982;250;27944;-77
2023/03/15 09:38:47;;;;;;;12.27;7.43;;;2.70;99.90;;;;;;475464;250;27507;-77
2023/03/15 09:40:48;;;;;;;10.93;7.68;;;2.60;99.90;;;;;;475944;250;27639;-76
2023/03/15 09:42:49;;;;;;;12.77;7.20;;;2.60;99.90;;;;;;475928;250;27603;-77
2023/03/15 09:44:51;;;;;;;9.38;7.15;;;2.60;99.90;;;;;;475907;250;28025;-77
2023/03/15 09:46:52;;;;;;;14.85;7.37;;;2.60;99.90;;;;;;475944;250;28102;-76
2023/03/15 09:48:53;;;;;;;11.52;7.10;;;2.70;99.90;;;;;;475929;250;29076;-77
2023/03/15 09:50:54;;;;;;;13.93;7.57;;;2.70;99.90;;;;;;475984;250;27591;-77
2023/03/15 09:52:56;;;;;;;11.63;7.07;;;2.70;99.90;;;;;;475973;250;27527;-77
2023/03/15 09:54:57;;;;;;;9.43;6.65;;;2.60;99.90;;;;;;476005;250;27549;-77
2023/03/15 09:56:58;;;;;;;12.77;7.80;;;2.60;99.90;;;;;;476024;250;27638;-76
2023/03/15 09:59:00;;;;;;;8.18;6.03;;;2.60;99.90;;;;;;475996;250;27621;-78
2023/03/15 10:01:01;;;;;;;12.75;7.53;;;2.70;99.90;;;;;;475966;250;27677;-76
2023/03/15 10:03:05;;;;;;;12.63;7.47;;;2.80;99.90;;;;;;475900;250;27617;-77
2023/03/15 10:05:03;;;;;;;15.38;8.48;;;2.80;99.90;;;;;;475710;250;27640;-77
2023/03/15 10:07:04;;;;;;;12.07;7.28;;;2.80;99.90;;;;;;476036;250;28126;-75
2023/03/15 10:09:06;;;;;;;8.60;6.85;;;2.80;99.90;;;;;;475976;250;28015;-77
2023/03/15 10:11:07;;;;;;;11.60;7.65;;;2.90;99.90;;;;;;475952;250;28068;-76
2023/03/15 10:13:08;;;;;;;10.93;6.97;;;2.90;99.90;;;;;;475947;250;27518;-77
2023/03/15 10:15:09;;;;;;;10.48;6.65;;;3.00;99.90;;;;;;475976;250;27630;-77
2023/03/15 10:17:11;;;;;;;14.90;8.68;;;3.00;99.90;;;;;;475959;250;27571;-75
2023/03/15 10:19:12;;;;;;;13.80;7.85;;;3.10;99.90;;;;;;475977;250;27507;-77
2023/03/15 10:21:13;;;;;;;9.80;7.05;;;3.10;99.90;;;;;;475858;250;27545;-76
2023/03/15 10:23:15;;;;;;;10.90;7.00;;;3.10;99.90;;;;;;475951;250;27612;-77
2023/03/15 10:25:16;;;;;;;11.30;7.82;;;3.10;99.90;;;;;;475918;250;27698;-76
2023/03/15 10:27:17;;;;;;;10.50;6.75;;;3.10;99.90;;;;;;476011;250;28040;-76
2023/03/15 10:29:18;;;;;;;10.48;6.75;;;3.00;99.90;;;;;;475961;250;29128;-77
2023/03/15 10:31:19;;;;;;;11.52;6.60;;;3.00;99.90;;;;;;475939;250;27681;-76